Groomtown, North Carolina
Current Conditions -  °F | °C
As of 5:54 PM on Monday 24 Nov 2014 (Local Time) from KGSO Reporting Station
Scattered Clouds Scattered Clouds  
Wind Chill: 66°   Ceiling: Unl
Heat Index: 66°   Visibility: 10mi
Dew Point: 53°   Wind: 9mph
Humidity: 63%   Direction: 200°SSW
Pressure: 29.79"   Gusts: NA
Location:  36.011°N, 79.8751°W
Report Text: KGSO 242254Z 20008KT 10SM FEW040 SCT120 SCT250 19/12 A2979 RMK AO2 SLP080 T01890117
Loading
Personal Weather Stations






























Interactive Weather Map New forecast layout! Learn more

10-Day Weather Forecast

Advertisements
Track Severe Weather on mobile